sensor_id;sensor_type;location;lat;lon;timestamp;P1;durP1;ratioP1;P2;durP2;ratioP2
7783;SDS011;19359;51.402;6.778;2023-06-22T00:01:18;856.50;;;723.78;;
7783;SDS011;19359;51.402;6.778;2023-06-22T00:03:46;847.30;;;716.63;;
7783;SDS011;19359;51.402;6.778;2023-06-22T00:06:14;862.45;;;724.58;;
7783;SDS011;19359;51.402;6.778;2023-06-22T00:08:41;842.60;;;714.65;;
7783;SDS011;19359;51.402;6.778;2023-06-22T00:11:08;860.42;;;713.67;;
7783;SDS011;19359;51.402;6.778;2023-06-22T00:13:36;841.50;;;710.35;;
7783;SDS011;19359;51.402;6.778;2023-06-22T00:16:03;853.08;;;713.25;;
7783;SDS011;19359;51.402;6.778;2023-06-22T00:18:30;845.60;;;708.10;;
7783;SDS011;19359;51.402;6.778;2023-06-22T00:20:57;840.35;;;701.72;;
7783;SDS011;19359;51.402;6.778;2023-06-22T00:23:26;848.40;;;707.53;;
7783;SDS011;19359;51.402;6.778;2023-06-22T00:25:53;847.65;;;702.85;;
7783;SDS011;19359;51.402;6.778;2023-06-22T00:28:20;844.42;;;698.60;;
7783;SDS011;19359;51.402;6.778;2023-06-22T00:30:48;846.17;;;695.53;;
7783;SDS011;19359;51.402;6.778;2023-06-22T00:33:15;845.25;;;701.10;;
7783;SDS011;19359;51.402;6.778;2023-06-22T00:35:42;843.85;;;701.65;;
7783;SDS011;19359;51.402;6.778;2023-06-22T00:38:09;845.60;;;709.30;;
7783;SDS011;19359;51.402;6.778;2023-06-22T00:40:37;839.60;;;699.63;;
7783;SDS011;19359;51.402;6.778;2023-06-22T00:43:04;832.88;;;701.47;;
7783;SDS011;19359;51.402;6.778;2023-06-22T00:45:32;836.08;;;704.78;;
7783;SDS011;19359;51.402;6.778;2023-06-22T00:47:59;842.22;;;702.15;;
7783;SDS011;19359;51.402;6.778;2023-06-22T00:50:27;841.63;;;701.65;;
7783;SDS011;19359;51.402;6.778;2023-06-22T00:52:58;838.22;;;700.88;;
7783;SDS011;19359;51.402;6.778;2023-06-22T00:55:29;834.22;;;694.30;;
7783;SDS011;19359;51.402;6.778;2023-06-22T00:57:57;837.72;;;691.72;;
7783;SDS011;19359;51.402;6.778;2023-06-22T01:00:24;835.65;;;686.83;;
7783;SDS011;19359;51.402;6.778;2023-06-22T01:02:51;844.58;;;702.88;;
7783;SDS011;19359;51.402;6.778;2023-06-22T01:05:19;836.33;;;690.20;;
7783;SDS011;19359;51.402;6.778;2023-06-22T01:07:55;831.38;;;683.35;;
7783;SDS011;19359;51.402;6.778;2023-06-22T01:10:25;834.20;;;690.80;;
7783;SDS011;19359;51.402;6.778;2023-06-22T01:13:01;838.55;;;682.92;;
7783;SDS011;19359;51.402;6.778;2023-06-22T01:15:30;839.85;;;695.45;;
7783;SDS011;19359;51.402;6.778;2023-06-22T01:17:58;836.60;;;685.15;;
7783;SDS011;19359;51.402;6.778;2023-06-22T01:20:26;834.58;;;680.83;;
7783;SDS011;19359;51.402;6.778;2023-06-22T01:22:58;840.80;;;690.60;;
7783;SDS011;19359;51.402;6.778;2023-06-22T01:25:33;830.17;;;671.80;;
7783;SDS011;19359;51.402;6.778;2023-06-22T01:28:05;836.85;;;688.90;;
7783;SDS011;19359;51.402;6.778;2023-06-22T01:30:41;832.90;;;674.85;;
7783;SDS011;19359;51.402;6.778;2023-06-22T01:33:09;833.40;;;686.28;;
7783;SDS011;19359;51.402;6.778;2023-06-22T01:35:37;834.70;;;678.63;;
7783;SDS011;19359;51.402;6.778;2023-06-22T01:38:04;831.60;;;682.13;;
7783;SDS011;19359;51.402;6.778;2023-06-22T01:40:32;830.22;;;689.58;;
7783;SDS011;19359;51.402;6.778;2023-06-22T01:43:00;838.95;;;692.05;;
7783;SDS011;19359;51.402;6.778;2023-06-22T01:45:28;828.03;;;675.22;;
7783;SDS011;19359;51.402;6.778;2023-06-22T01:47:56;827.63;;;683.67;;
7783;SDS011;19359;51.402;6.778;2023-06-22T01:50:23;816.17;;;666.50;;
7783;SDS011;19359;51.402;6.778;2023-06-22T01:52:50;826.60;;;670.92;;
7783;SDS011;19359;51.402;6.778;2023-06-22T01:55:17;828.33;;;671.55;;
7783;SDS011;19359;51.402;6.778;2023-06-22T01:57:44;837.70;;;674.35;;
7783;SDS011;19359;51.402;6.778;2023-06-22T02:00:12;837.33;;;679.38;;
7783;SDS011;19359;51.402;6.778;2023-06-22T02:02:43;834.45;;;693.60;;
7783;SDS011;19359;51.402;6.778;2023-06-22T02:05:12;830.75;;;676.17;;
7783;SDS011;19359;51.402;6.778;2023-06-22T02:07:44;827.70;;;666.65;;
7783;SDS011;19359;51.402;6.778;2023-06-22T02:10:13;831.25;;;685.40;;
7783;SDS011;19359;51.402;6.778;2023-06-22T02:12:41;826.25;;;669.08;;
7783;SDS011;19359;51.402;6.778;2023-06-22T02:15:09;826.45;;;672.08;;
7783;SDS011;19359;51.402;6.778;2023-06-22T02:17:37;829.90;;;682.80;;
7783;SDS011;19359;51.402;6.778;2023-06-22T02:20:05;823.90;;;688.05;;
7783;SDS011;19359;51.402;6.778;2023-06-22T02:22:35;817.65;;;664.53;;
7783;SDS011;19359;51.402;6.778;2023-06-22T02:25:01;816.30;;;658.35;;
7783;SDS011;19359;51.402;6.778;2023-06-22T02:27:29;832.33;;;673.30;;
7783;SDS011;19359;51.402;6.778;2023-06-22T02:29:56;820.35;;;674.70;;
7783;SDS011;19359;51.402;6.778;2023-06-22T02:32:23;820.05;;;673.30;;
7783;SDS011;19359;51.402;6.778;2023-06-22T02:34:50;818.15;;;679.20;;
7783;SDS011;19359;51.402;6.778;2023-06-22T02:37:18;814.92;;;669.42;;
7783;SDS011;19359;51.402;6.778;2023-06-22T02:39:46;820.53;;;674.25;;
7783;SDS011;19359;51.402;6.778;2023-06-22T02:42:13;810.50;;;666.33;;
7783;SDS011;19359;51.402;6.778;2023-06-22T02:44:45;800.58;;;666.88;;
7783;SDS011;19359;51.402;6.778;2023-06-22T02:47:12;810.63;;;665.15;;
7783;SDS011;19359;51.402;6.778;2023-06-22T02:49:39;814.03;;;660.70;;
7783;SDS011;19359;51.402;6.778;2023-06-22T02:52:07;816.70;;;656.33;;
7783;SDS011;19359;51.402;6.778;2023-06-22T02:54:34;822.33;;;672.38;;
7783;SDS011;19359;51.402;6.778;2023-06-22T02:57:02;817.00;;;667.58;;
7783;SDS011;19359;51.402;6.778;2023-06-22T02:59:29;807.25;;;667.40;;
7783;SDS011;19359;51.402;6.778;2023-06-22T03:01:56;800.08;;;648.75;;
7783;SDS011;19359;51.402;6.778;2023-06-22T03:04:23;818.95;;;665.67;;
7783;SDS011;19359;51.402;6.778;2023-06-22T03:06:50;813.08;;;658.80;;
7783;SDS011;19359;51.402;6.778;2023-06-22T03:09:18;812.75;;;660.42;;
7783;SDS011;19359;51.402;6.778;2023-06-22T03:11:45;749.90;;;664.28;;
7783;SDS011;19359;51.402;6.778;2023-06-22T03:14:13;756.15;;;672.92;;
7783;SDS011;19359;51.402;6.778;2023-06-22T03:16:40;769.58;;;672.85;;
7783;SDS011;19359;51.402;6.778;2023-06-22T03:19:07;747.65;;;665.33;;
7783;SDS011;19359;51.402;6.778;2023-06-22T03:21:34;764.35;;;682.28;;
7783;SDS011;19359;51.402;6.778;2023-06-22T03:24:02;745.30;;;665.25;;
7783;SDS011;19359;51.402;6.778;2023-06-22T03:26:29;763.55;;;679.97;;
7783;SDS011;19359;51.402;6.778;2023-06-22T03:28:56;756.85;;;675.42;;
7783;SDS011;19359;51.402;6.778;2023-06-22T03:31:24;764.55;;;680.38;;
7783;SDS011;19359;51.402;6.778;2023-06-22T03:33:51;750.08;;;665.20;;
7783;SDS011;19359;51.402;6.778;2023-06-22T03:36:18;754.70;;;671.95;;
7783;SDS011;19359;51.402;6.778;2023-06-22T03:38:48;741.28;;;649.55;;
7783;SDS011;19359;51.402;6.778;2023-06-22T03:41:16;779.53;;;673.45;;
7783;SDS011;19359;51.402;6.778;2023-06-22T03:43:43;753.97;;;663.08;;
7783;SDS011;19359;51.402;6.778;2023-06-22T03:46:10;808.63;;;640.33;;
7783;SDS011;19359;51.402;6.778;2023-06-22T03:48:38;809.10;;;632.05;;
7783;SDS011;19359;51.402;6.778;2023-06-22T03:51:06;812.85;;;630.33;;
7783;SDS011;19359;51.402;6.778;2023-06-22T03:53:33;826.25;;;641.22;;
7783;SDS011;19359;51.402;6.778;2023-06-22T03:56:00;822.03;;;643.25;;
7783;SDS011;19359;51.402;6.778;2023-06-22T03:58:27;833.55;;;644.55;;
7783;SDS011;19359;51.402;6.778;2023-06-22T04:00:58;838.95;;;649.55;;
7783;SDS011;19359;51.402;6.778;2023-06-22T04:03:26;840.72;;;653.30;;
7783;SDS011;19359;51.402;6.778;2023-06-22T04:05:54;845.63;;;660.28;;
7783;SDS011;19359;51.402;6.778;2023-06-22T04:08:21;835.97;;;656.60;;
7783;SDS011;19359;51.402;6.778;2023-06-22T04:10:48;827.10;;;643.85;;
7783;SDS011;19359;51.402;6.778;2023-06-22T04:13:16;826.40;;;660.03;;
7783;SDS011;19359;51.402;6.778;2023-06-22T04:15:43;827.70;;;661.75;;
7783;SDS011;19359;51.402;6.778;2023-06-22T04:18:10;829.60;;;657.35;;
7783;SDS011;19359;51.402;6.778;2023-06-22T04:20:38;832.85;;;657.88;;
7783;SDS011;19359;51.402;6.778;2023-06-22T04:23:07;827.15;;;657.83;;
7783;SDS011;19359;51.402;6.778;2023-06-22T04:25:34;854.47;;;677.55;;
7783;SDS011;19359;51.402;6.778;2023-06-22T04:28:01;832.58;;;666.00;;
7783;SDS011;19359;51.402;6.778;2023-06-22T04:30:29;838.47;;;658.95;;
7783;SDS011;19359;51.402;6.778;2023-06-22T04:32:57;844.33;;;663.33;;
7783;SDS011;19359;51.402;6.778;2023-06-22T04:35:25;839.15;;;668.78;;
7783;SDS011;19359;51.402;6.778;2023-06-22T04:37:57;854.75;;;675.55;;
7783;SDS011;19359;51.402;6.778;2023-06-22T04:40:26;837.72;;;661.92;;
7783;SDS011;19359;51.402;6.778;2023-06-22T04:42:54;833.45;;;661.85;;
7783;SDS011;19359;51.402;6.778;2023-06-22T04:45:21;838.83;;;673.00;;
7783;SDS011;19359;51.402;6.778;2023-06-22T04:47:48;847.55;;;675.00;;
7783;SDS011;19359;51.402;6.778;2023-06-22T04:50:16;846.83;;;682.10;;
7783;SDS011;19359;51.402;6.778;2023-06-22T04:52:46;816.15;;;661.00;;
7783;SDS011;19359;51.402;6.778;2023-06-22T04:55:14;825.53;;;667.25;;
7783;SDS011;19359;51.402;6.778;2023-06-22T04:57:44;820.75;;;667.75;;
7783;SDS011;19359;51.402;6.778;2023-06-22T05:00:14;817.80;;;658.17;;
7783;SDS011;19359;51.402;6.778;2023-06-22T05:02:42;831.88;;;676.70;;
7783;SDS011;19359;51.402;6.778;2023-06-22T05:05:09;821.72;;;661.47;;
7783;SDS011;19359;51.402;6.778;2023-06-22T05:07:38;826.90;;;683.20;;
7783;SDS011;19359;51.402;6.778;2023-06-22T05:10:08;826.50;;;666.15;;
7783;SDS011;19359;51.402;6.778;2023-06-22T05:12:36;821.40;;;668.03;;
7783;SDS011;19359;51.402;6.778;2023-06-22T05:15:05;829.28;;;678.13;;
7783;SDS011;19359;51.402;6.778;2023-06-22T05:17:32;814.00;;;674.22;;
7783;SDS011;19359;51.402;6.778;2023-06-22T05:19:59;829.85;;;669.92;;
7783;SDS011;19359;51.402;6.778;2023-06-22T05:22:26;828.35;;;676.05;;
7783;SDS011;19359;51.402;6.778;2023-06-22T05:24:53;836.60;;;670.65;;
7783;SDS011;19359;51.402;6.778;2023-06-22T05:27:20;828.22;;;674.22;;
7783;SDS011;19359;51.402;6.778;2023-06-22T05:29:48;814.25;;;665.65;;
7783;SDS011;19359;51.402;6.778;2023-06-22T05:32:16;828.33;;;671.20;;
7783;SDS011;19359;51.402;6.778;2023-06-22T05:34:43;826.63;;;668.10;;
7783;SDS011;19359;51.402;6.778;2023-06-22T05:37:10;827.30;;;673.92;;
7783;SDS011;19359;51.402;6.778;2023-06-22T05:39:38;821.92;;;662.40;;
7783;SDS011;19359;51.402;6.778;2023-06-22T05:42:05;826.85;;;668.42;;
7783;SDS011;19359;51.402;6.778;2023-06-22T05:44:32;823.25;;;672.00;;
7783;SDS011;19359;51.402;6.778;2023-06-22T05:47:00;834.28;;;686.50;;
7783;SDS011;19359;51.402;6.778;2023-06-22T05:49:29;831.58;;;675.20;;
7783;SDS011;19359;51.402;6.778;2023-06-22T05:51:57;828.67;;;685.38;;
7783;SDS011;19359;51.402;6.778;2023-06-22T05:54:25;828.15;;;672.85;;
7783;SDS011;19359;51.402;6.778;2023-06-22T05:56:52;833.35;;;673.10;;
7783;SDS011;19359;51.402;6.778;2023-06-22T05:59:19;826.13;;;669.25;;
7783;SDS011;19359;51.402;6.778;2023-06-22T06:01:46;837.78;;;674.90;;
7783;SDS011;19359;51.402;6.778;2023-06-22T06:04:15;823.05;;;659.15;;
7783;SDS011;19359;51.402;6.778;2023-06-22T06:06:44;849.50;;;677.55;;
7783;SDS011;19359;51.402;6.778;2023-06-22T06:09:13;816.28;;;653.53;;
7783;SDS011;19359;51.402;6.778;2023-06-22T06:11:40;845.25;;;676.78;;
7783;SDS011;19359;51.402;6.778;2023-06-22T06:14:08;814.88;;;659.60;;
7783;SDS011;19359;51.402;6.778;2023-06-22T06:16:35;832.30;;;660.92;;
7783;SDS011;19359;51.402;6.778;2023-06-22T06:19:02;800.58;;;633.15;;
7783;SDS011;19359;51.402;6.778;2023-06-22T06:21:29;807.90;;;622.75;;
7783;SDS011;19359;51.402;6.778;2023-06-22T06:23:57;792.03;;;623.50;;
7783;SDS011;19359;51.402;6.778;2023-06-22T06:26:25;780.25;;;610.80;;
7783;SDS011;19359;51.402;6.778;2023-06-22T06:28:55;780.75;;;608.05;;
7783;SDS011;19359;51.402;6.778;2023-06-22T06:31:23;796.92;;;619.50;;
7783;SDS011;19359;51.402;6.778;2023-06-22T06:33:52;801.28;;;599.05;;
7783;SDS011;19359;51.402;6.778;2023-06-22T06:36:20;777.38;;;602.40;;
7783;SDS011;19359;51.402;6.778;2023-06-22T06:38:47;779.42;;;604.42;;
7783;SDS011;19359;51.402;6.778;2023-06-22T06:41:16;773.40;;;593.70;;
7783;SDS011;19359;51.402;6.778;2023-06-22T06:43:42;772.08;;;596.97;;
7783;SDS011;19359;51.402;6.778;2023-06-22T06:46:10;795.28;;;593.47;;
7783;SDS011;19359;51.402;6.778;2023-06-22T06:48:37;790.78;;;596.08;;
7783;SDS011;19359;51.402;6.778;2023-06-22T06:51:04;777.47;;;582.53;;
7783;SDS011;19359;51.402;6.778;2023-06-22T06:53:34;797.78;;;588.40;;
7783;SDS011;19359;51.402;6.778;2023-06-22T06:56:01;802.45;;;590.38;;
7783;SDS011;19359;51.402;6.778;2023-06-22T06:58:31;811.90;;;596.72;;
7783;SDS011;19359;51.402;6.778;2023-06-22T07:00:58;808.70;;;601.85;;
7783;SDS011;19359;51.402;6.778;2023-06-22T07:03:26;808.97;;;608.72;;
7783;SDS011;19359;51.402;6.778;2023-06-22T07:05:52;813.97;;;612.70;;
7783;SDS011;19359;51.402;6.778;2023-06-22T07:08:19;808.30;;;608.72;;
7783;SDS011;19359;51.402;6.778;2023-06-22T07:10:46;813.90;;;623.30;;
7783;SDS011;19359;51.402;6.778;2023-06-22T07:13:14;808.85;;;618.67;;
7783;SDS011;19359;51.402;6.778;2023-06-22T07:15:42;809.80;;;609.25;;
7783;SDS011;19359;51.402;6.778;2023-06-22T07:18:09;814.33;;;616.53;;
7783;SDS011;19359;51.402;6.778;2023-06-22T07:20:36;808.03;;;613.08;;
7783;SDS011;19359;51.402;6.778;2023-06-22T07:23:04;826.25;;;624.17;;
7783;SDS011;19359;51.402;6.778;2023-06-22T07:25:31;823.38;;;636.85;;
7783;SDS011;19359;51.402;6.778;2023-06-22T07:27:59;824.13;;;636.33;;
7783;SDS011;19359;51.402;6.778;2023-06-22T07:30:26;823.55;;;637.13;;
7783;SDS011;19359;51.402;6.778;2023-06-22T07:32:55;837.10;;;647.58;;
7783;SDS011;19359;51.402;6.778;2023-06-22T07:35:23;818.35;;;643.50;;
7783;SDS011;19359;51.402;6.778;2023-06-22T07:37:50;839.55;;;642.83;;
7783;SDS011;19359;51.402;6.778;2023-06-22T07:40:16;823.85;;;645.75;;
7783;SDS011;19359;51.402;6.778;2023-06-22T07:42:44;824.80;;;653.58;;
7783;SDS011;19359;51.402;6.778;2023-06-22T07:45:13;821.92;;;641.92;;
7783;SDS011;19359;51.402;6.778;2023-06-22T07:47:40;840.53;;;662.13;;
7783;SDS011;19359;51.402;6.778;2023-06-22T07:50:09;834.05;;;648.33;;
7783;SDS011;19359;51.402;6.778;2023-06-22T07:52:36;845.50;;;663.03;;
7783;SDS011;19359;51.402;6.778;2023-06-22T07:55:03;824.55;;;638.22;;
7783;SDS011;19359;51.402;6.778;2023-06-22T07:57:31;821.88;;;639.38;;
7783;SDS011;19359;51.402;6.778;2023-06-22T07:59:58;823.13;;;637.42;;
7783;SDS011;19359;51.402;6.778;2023-06-22T08:02:25;814.80;;;631.83;;
7783;SDS011;19359;51.402;6.778;2023-06-22T08:04:52;828.88;;;640.85;;
7783;SDS011;19359;51.402;6.778;2023-06-22T08:07:21;818.20;;;633.97;;
7783;SDS011;19359;51.402;6.778;2023-06-22T08:09:48;825.55;;;647.22;;
7783;SDS011;19359;51.402;6.778;2023-06-22T08:12:15;815.30;;;637.42;;
7783;SDS011;19359;51.402;6.778;2023-06-22T08:14:42;818.97;;;645.65;;
7783;SDS011;19359;51.402;6.778;2023-06-22T08:17:11;821.78;;;632.35;;
7783;SDS011;19359;51.402;6.778;2023-06-22T08:19:39;830.00;;;646.05;;
7783;SDS011;19359;51.402;6.778;2023-06-22T08:22:06;833.83;;;657.72;;
7783;SDS011;19359;51.402;6.778;2023-06-22T08:24:35;844.33;;;657.55;;
7783;SDS011;19359;51.402;6.778;2023-06-22T08:27:02;833.45;;;655.70;;
7783;SDS011;19359;51.402;6.778;2023-06-22T08:29:29;830.15;;;652.58;;
7783;SDS011;19359;51.402;6.778;2023-06-22T08:31:56;836.65;;;659.53;;
7783;SDS011;19359;51.402;6.778;2023-06-22T08:34:23;834.75;;;658.55;;
7783;SDS011;19359;51.402;6.778;2023-06-22T08:36:52;838.05;;;668.03;;
7783;SDS011;19359;51.402;6.778;2023-06-22T08:39:20;838.47;;;666.95;;
7783;SDS011;19359;51.402;6.778;2023-06-22T08:41:48;834.38;;;667.25;;
7783;SDS011;19359;51.402;6.778;2023-06-22T08:44:18;853.20;;;676.67;;
7783;SDS011;19359;51.402;6.778;2023-06-22T08:46:45;852.03;;;683.22;;
7783;SDS011;19359;51.402;6.778;2023-06-22T08:49:12;831.83;;;677.60;;
7783;SDS011;19359;51.402;6.778;2023-06-22T08:51:40;835.20;;;679.35;;
7783;SDS011;19359;51.402;6.778;2023-06-22T08:54:07;834.58;;;675.47;;
7783;SDS011;19359;51.402;6.778;2023-06-22T08:56:34;835.05;;;682.05;;
7783;SDS011;19359;51.402;6.778;2023-06-22T08:59:02;840.15;;;682.50;;
7783;SDS011;19359;51.402;6.778;2023-06-22T09:01:32;844.90;;;694.88;;
7783;SDS011;19359;51.402;6.778;2023-06-22T09:03:59;846.70;;;696.03;;
7783;SDS011;19359;51.402;6.778;2023-06-22T09:06:26;849.00;;;702.65;;
7783;SDS011;19359;51.402;6.778;2023-06-22T09:08:56;846.70;;;701.70;;
7783;SDS011;19359;51.402;6.778;2023-06-22T09:11:24;844.45;;;708.83;;
7783;SDS011;19359;51.402;6.778;2023-06-22T09:13:51;858.03;;;718.40;;
7783;SDS011;19359;51.402;6.778;2023-06-22T09:16:24;875.08;;;746.67;;
7783;SDS011;19359;51.402;6.778;2023-06-22T09:18:51;869.70;;;747.05;;
7783;SDS011;19359;51.402;6.778;2023-06-22T09:21:19;863.67;;;754.08;;
7783;SDS011;19359;51.402;6.778;2023-06-22T09:23:46;872.38;;;756.42;;
7783;SDS011;19359;51.402;6.778;2023-06-22T09:26:16;884.97;;;776.97;;
7783;SDS011;19359;51.402;6.778;2023-06-22T09:28:43;875.95;;;777.55;;
7783;SDS011;19359;51.402;6.778;2023-06-22T09:31:10;881.05;;;771.00;;
7783;SDS011;19359;51.402;6.778;2023-06-22T09:33:39;875.80;;;775.28;;
7783;SDS011;19359;51.402;6.778;2023-06-22T09:36:07;876.58;;;778.75;;
7783;SDS011;19359;51.402;6.778;2023-06-22T09:38:34;881.65;;;782.85;;
7783;SDS011;19359;51.402;6.778;2023-06-22T09:41:01;875.95;;;777.92;;
7783;SDS011;19359;51.402;6.778;2023-06-22T09:43:28;884.15;;;786.58;;
7783;SDS011;19359;51.402;6.778;2023-06-22T09:45:55;873.80;;;777.47;;
7783;SDS011;19359;51.402;6.778;2023-06-22T09:48:22;884.28;;;787.38;;
7783;SDS011;19359;51.402;6.778;2023-06-22T09:50:51;884.10;;;787.03;;
7783;SDS011;19359;51.402;6.778;2023-06-22T09:53:18;877.88;;;781.00;;
7783;SDS011;19359;51.402;6.778;2023-06-22T09:55:45;890.50;;;793.05;;
7783;SDS011;19359;51.402;6.778;2023-06-22T09:58:12;898.75;;;800.35;;
7783;SDS011;19359;51.402;6.778;2023-06-22T10:00:39;901.25;;;802.85;;
7783;SDS011;19359;51.402;6.778;2023-06-22T10:03:07;915.30;;;821.95;;
7783;SDS011;19359;51.402;6.778;2023-06-22T10:05:34;905.92;;;815.38;;
7783;SDS011;19359;51.402;6.778;2023-06-22T10:08:02;921.58;;;827.55;;
7783;SDS011;19359;51.402;6.778;2023-06-22T10:10:30;910.75;;;817.97;;
7783;SDS011;19359;51.402;6.778;2023-06-22T10:12:57;918.63;;;825.05;;
7783;SDS011;19359;51.402;6.778;2023-06-22T10:15:29;925.25;;;830.92;;
7783;SDS011;19359;51.402;6.778;2023-06-22T10:17:56;911.85;;;816.95;;
7783;SDS011;19359;51.402;6.778;2023-06-22T10:20:23;916.55;;;822.08;;
7783;SDS011;19359;51.402;6.778;2023-06-22T10:22:51;914.83;;;821.78;;
7783;SDS011;19359;51.402;6.778;2023-06-22T10:25:21;927.25;;;831.88;;
7783;SDS011;19359;51.402;6.778;2023-06-22T10:27:48;934.53;;;838.10;;
7783;SDS011;19359;51.402;6.778;2023-06-22T10:30:15;924.92;;;829.65;;
7783;SDS011;19359;51.402;6.778;2023-06-22T10:32:42;939.53;;;842.17;;
7783;SDS011;19359;51.402;6.778;2023-06-22T10:35:09;930.42;;;834.25;;
7783;SDS011;19359;51.402;6.778;2023-06-22T10:37:38;932.92;;;836.92;;
7783;SDS011;19359;51.402;6.778;2023-06-22T10:40:08;941.95;;;846.13;;
7783;SDS011;19359;51.402;6.778;2023-06-22T10:42:37;936.88;;;840.53;;
7783;SDS011;19359;51.402;6.778;2023-06-22T10:45:04;941.15;;;845.03;;
7783;SDS011;19359;51.402;6.778;2023-06-22T10:47:31;930.28;;;835.08;;
7783;SDS011;19359;51.402;6.778;2023-06-22T10:49:58;924.22;;;829.15;;
7783;SDS011;19359;51.402;6.778;2023-06-22T10:52:26;918.83;;;825.25;;
7783;SDS011;19359;51.402;6.778;2023-06-22T10:54:53;913.80;;;820.17;;
7783;SDS011;19359;51.402;6.778;2023-06-22T10:57:21;925.05;;;830.45;;
7783;SDS011;19359;51.402;6.778;2023-06-22T10:59:49;911.28;;;816.53;;
7783;SDS011;19359;51.402;6.778;2023-06-22T11:02:16;920.38;;;826.47;;
7783;SDS011;19359;51.402;6.778;2023-06-22T11:04:43;916.08;;;822.28;;
7783;SDS011;19359;51.402;6.778;2023-06-22T11:07:11;914.70;;;819.95;;
7783;SDS011;19359;51.402;6.778;2023-06-22T11:09:38;905.55;;;811.72;;
7783;SDS011;19359;51.402;6.778;2023-06-22T11:12:06;925.75;;;830.80;;
7783;SDS011;19359;51.402;6.778;2023-06-22T11:14:33;901.10;;;807.50;;
7783;SDS011;19359;51.402;6.778;2023-06-22T11:17:01;925.55;;;830.85;;
7783;SDS011;19359;51.402;6.778;2023-06-22T11:19:28;909.55;;;816.80;;
7783;SDS011;19359;51.402;6.778;2023-06-22T11:21:55;912.75;;;814.30;;
7783;SDS011;19359;51.402;6.778;2023-06-22T11:24:22;903.65;;;812.38;;
7783;SDS011;19359;51.402;6.778;2023-06-22T11:26:49;903.35;;;811.80;;
7783;SDS011;19359;51.402;6.778;2023-06-22T11:29:16;904.17;;;811.25;;
7783;SDS011;19359;51.402;6.778;2023-06-22T11:31:44;902.78;;;810.58;;
7783;SDS011;19359;51.402;6.778;2023-06-22T11:34:12;894.60;;;803.22;;
7783;SDS011;19359;51.402;6.778;2023-06-22T11:36:39;898.97;;;805.17;;
7783;SDS011;19359;51.402;6.778;2023-06-22T11:39:07;888.30;;;795.65;;
7783;SDS011;19359;51.402;6.778;2023-06-22T11:41:36;877.08;;;786.38;;
7783;SDS011;19359;51.402;6.778;2023-06-22T11:44:03;874.97;;;784.53;;
7783;SDS011;19359;51.402;6.778;2023-06-22T11:46:30;860.05;;;767.90;;
7783;SDS011;19359;51.402;6.778;2023-06-22T11:48:58;848.67;;;757.90;;
7783;SDS011;19359;51.402;6.778;2023-06-22T11:51:26;839.42;;;750.58;;
7783;SDS011;19359;51.402;6.778;2023-06-22T11:53:53;823.50;;;733.97;;
7783;SDS011;19359;51.402;6.778;2023-06-22T11:56:20;798.70;;;711.83;;
7783;SDS011;19359;51.402;6.778;2023-06-22T11:58:47;808.80;;;720.25;;
7783;SDS011;19359;51.402;6.778;2023-06-22T12:01:14;784.25;;;698.63;;
7783;SDS011;19359;51.402;6.778;2023-06-22T12:03:41;778.85;;;686.70;;
7783;SDS011;19359;51.402;6.778;2023-06-22T12:06:09;770.47;;;687.40;;
7783;SDS011;19359;51.402;6.778;2023-06-22T12:08:37;763.03;;;678.20;;
7783;SDS011;19359;51.402;6.778;2023-06-22T12:11:04;794.28;;;672.20;;
7783;SDS011;19359;51.402;6.778;2023-06-22T12:13:31;792.88;;;668.17;;
7783;SDS011;19359;51.402;6.778;2023-06-22T12:15:58;796.60;;;682.17;;
7783;SDS011;19359;51.402;6.778;2023-06-22T12:18:26;803.88;;;674.67;;
7783;SDS011;19359;51.402;6.778;2023-06-22T12:20:53;830.33;;;678.33;;
7783;SDS011;19359;51.402;6.778;2023-06-22T12:23:20;821.85;;;691.35;;
7783;SDS011;19359;51.402;6.778;2023-06-22T12:25:48;798.65;;;696.97;;
7783;SDS011;19359;51.402;6.778;2023-06-22T12:28:15;830.40;;;696.65;;
7783;SDS011;19359;51.402;6.778;2023-06-22T12:30:42;829.90;;;695.10;;
7783;SDS011;19359;51.402;6.778;2023-06-22T12:33:09;810.17;;;714.53;;
7783;SDS011;19359;51.402;6.778;2023-06-22T12:35:36;832.67;;;694.10;;
7783;SDS011;19359;51.402;6.778;2023-06-22T12:38:04;841.67;;;706.67;;
7783;SDS011;19359;51.402;6.778;2023-06-22T12:40:32;822.22;;;706.50;;
7783;SDS011;19359;51.402;6.778;2023-06-22T12:43:00;830.50;;;714.78;;
7783;SDS011;19359;51.402;6.778;2023-06-22T12:45:27;832.45;;;712.83;;
7783;SDS011;19359;51.402;6.778;2023-06-22T12:47:58;819.15;;;708.10;;
7783;SDS011;19359;51.402;6.778;2023-06-22T12:50:25;812.45;;;695.92;;
7783;SDS011;19359;51.402;6.778;2023-06-22T12:52:52;842.63;;;707.80;;
7783;SDS011;19359;51.402;6.778;2023-06-22T12:55:19;793.33;;;706.63;;
7783;SDS011;19359;51.402;6.778;2023-06-22T12:57:46;789.00;;;710.10;;
7783;SDS011;19359;51.402;6.778;2023-06-22T13:00:15;781.80;;;705.30;;
7783;SDS011;19359;51.402;6.778;2023-06-22T13:02:43;787.78;;;709.55;;
7783;SDS011;19359;51.402;6.778;2023-06-22T13:05:10;837.83;;;682.30;;
7783;SDS011;19359;51.402;6.778;2023-06-22T13:07:37;790.80;;;694.08;;
7783;SDS011;19359;51.402;6.778;2023-06-22T13:10:05;781.25;;;693.55;;
7783;SDS011;19359;51.402;6.778;2023-06-22T13:12:32;817.42;;;672.00;;
7783;SDS011;19359;51.402;6.778;2023-06-22T13:14:59;834.65;;;672.38;;
7783;SDS011;19359;51.402;6.778;2023-06-22T13:17:29;779.47;;;695.72;;
7783;SDS011;19359;51.402;6.778;2023-06-22T13:19:56;752.90;;;667.88;;
7783;SDS011;19359;51.402;6.778;2023-06-22T13:22:27;774.00;;;689.17;;
7783;SDS011;19359;51.402;6.778;2023-06-22T13:24:55;776.92;;;692.55;;
7783;SDS011;19359;51.402;6.778;2023-06-22T13:27:23;782.63;;;697.75;;
7783;SDS011;19359;51.402;6.778;2023-06-22T13:29:50;763.70;;;681.15;;
7783;SDS011;19359;51.402;6.778;2023-06-22T13:32:17;770.28;;;686.67;;
7783;SDS011;19359;51.402;6.778;2023-06-22T13:34:45;777.85;;;692.72;;
7783;SDS011;19359;51.402;6.778;2023-06-22T13:37:13;779.67;;;694.17;;
7783;SDS011;19359;51.402;6.778;2023-06-22T13:39:40;788.05;;;702.42;;
7783;SDS011;19359;51.402;6.778;2023-06-22T13:42:07;779.58;;;694.45;;
7783;SDS011;19359;51.402;6.778;2023-06-22T13:44:34;772.90;;;692.42;;
7783;SDS011;19359;51.402;6.778;2023-06-22T13:47:01;776.60;;;693.78;;
7783;SDS011;19359;51.402;6.778;2023-06-22T13:49:29;778.58;;;694.22;;
7783;SDS011;19359;51.402;6.778;2023-06-22T13:51:58;789.85;;;694.35;;
7783;SDS011;19359;51.402;6.778;2023-06-22T13:54:25;796.85;;;693.38;;
7783;SDS011;19359;51.402;6.778;2023-06-22T13:56:52;798.03;;;709.45;;
7783;SDS011;19359;51.402;6.778;2023-06-22T13:59:19;793.00;;;708.53;;
7783;SDS011;19359;51.402;6.778;2023-06-22T14:01:46;789.03;;;702.08;;
7783;SDS011;19359;51.402;6.778;2023-06-22T14:04:13;809.17;;;720.88;;
7783;SDS011;19359;51.402;6.778;2023-06-22T14:06:41;823.40;;;734.53;;
7783;SDS011;19359;51.402;6.778;2023-06-22T14:09:09;830.33;;;742.58;;
7783;SDS011;19359;51.402;6.778;2023-06-22T14:11:36;814.03;;;725.30;;